createdAt,value
2022-12-17T00:01:06.989Z,40.33
2022-12-17T00:03:52.359Z,43.33
2022-12-17T00:06:38.179Z,38.90
2022-12-17T00:09:23.473Z,36.57
2022-12-17T00:12:11.474Z,27.27
2022-12-17T00:14:56.841Z,45.97
2022-12-17T00:17:43.446Z,37.97
2022-12-17T00:20:29.007Z,38.93
2022-12-17T00:23:18.461Z,45.90
2022-12-17T00:26:05.649Z,38.37
2022-12-17T00:28:51.193Z,41.03
2022-12-17T00:31:37.313Z,38.40
2022-12-17T00:34:24.119Z,37.47
2022-12-17T00:37:10.120Z,39.33
2022-12-17T00:39:59.259Z,47.77
2022-12-17T00:42:45.399Z,39.27
2022-12-17T00:45:31.338Z,46.33
2022-12-17T00:48:16.460Z,45.87
2022-12-17T00:51:03.117Z,42.07
2022-12-17T00:53:48.235Z,47.60
2022-12-17T00:56:33.625Z,41.23
2022-12-17T00:59:18.814Z,42.33
2022-12-17T01:02:04.371Z,43.57
2022-12-17T01:04:50.100Z,47.83
2022-12-17T01:07:36.655Z,36.53
2022-12-17T01:10:22.336Z,33.70
2022-12-17T01:13:08.641Z,44.33
2022-12-17T01:15:53.883Z,43.27
2022-12-17T01:18:42.120Z,47.73
2022-12-17T01:21:27.244Z,47.43
2022-12-17T01:24:13.792Z,44.93
2022-12-17T01:26:59.029Z,47.53
2022-12-17T01:29:44.278Z,45.30
2022-12-17T01:32:29.804Z,42.83
2022-12-17T01:35:15.145Z,46.23
2022-12-17T01:38:01.433Z,49.80
2022-12-17T01:40:50.361Z,50.43
2022-12-17T01:43:50.479Z,43.53
2022-12-17T01:46:36.086Z,46.87
2022-12-17T01:49:21.944Z,52.30
2022-12-17T01:52:10.102Z,45.13
2022-12-17T01:54:55.936Z,50.47
2022-12-17T01:57:43.907Z,48.70
2022-12-17T02:00:28.223Z,52.57
2022-12-17T02:03:13.828Z,54.20
2022-12-17T02:06:03.325Z,45.03
2022-12-17T02:08:57.255Z,49.20
2022-12-17T02:11:47.617Z,46.90
2022-12-17T02:14:41.202Z,42.03
2022-12-17T02:17:33.480Z,49.30
2022-12-17T02:20:31.228Z,46.10
2022-12-17T02:23:30.886Z,47.20
2022-12-17T02:26:21.181Z,41.63
2022-12-17T02:29:10.396Z,41.17
2022-12-17T02:32:03.823Z,53.43
2022-12-17T02:34:49.068Z,45.47
2022-12-17T02:37:34.563Z,49.87
2022-12-17T02:40:19.827Z,42.40
2022-12-17T02:43:07.695Z,47.37
2022-12-17T02:45:54.783Z,47.30
2022-12-17T02:48:40.648Z,44.00
2022-12-17T02:51:25.737Z,38.20
2022-12-17T02:54:12.336Z,35.40
2022-12-17T02:56:57.435Z,41.00
2022-12-17T02:59:43.192Z,39.97
2022-12-17T03:02:30.238Z,37.70
2022-12-17T03:05:43.483Z,33.53
2022-12-17T03:08:21.057Z,33.13
2022-12-17T03:11:06.268Z,39.47
2022-12-17T03:13:51.696Z,37.43
2022-12-17T03:16:38.287Z,39.33
2022-12-17T03:19:25.226Z,37.07
2022-12-17T03:22:10.446Z,35.27
2022-12-17T03:24:56.156Z,41.10
2022-12-17T03:27:41.241Z,33.43
2022-12-17T03:30:27.532Z,37.80
2022-12-17T03:33:13.901Z,40.90
2022-12-17T03:36:00.455Z,39.50
2022-12-17T03:38:47.269Z,39.90
2022-12-17T03:41:32.323Z,41.47
2022-12-17T03:44:17.734Z,46.13
2022-12-17T03:47:02.958Z,37.73
2022-12-17T03:49:49.703Z,38.63
2022-12-17T03:52:36.173Z,39.70
2022-12-17T03:55:21.867Z,35.93
2022-12-17T03:58:07.090Z,35.50
2022-12-17T04:00:52.588Z,36.77
2022-12-17T04:03:38.375Z,34.57
2022-12-17T04:06:24.119Z,30.73
2022-12-17T04:09:10.600Z,41.83
2022-12-17T04:11:55.746Z,40.73
2022-12-17T04:14:41.030Z,35.00
2022-12-17T04:17:26.106Z,31.40
2022-12-17T04:20:11.379Z,33.03
2022-12-17T04:22:56.996Z,34.90
2022-12-17T04:25:43.440Z,33.17
2022-12-17T04:28:28.834Z,34.57
2022-12-17T04:31:14.387Z,29.37
2022-12-17T04:33:59.637Z,32.87
2022-12-17T04:36:44.877Z,31.40
2022-12-17T04:39:30.196Z,33.87
2022-12-17T04:42:16.875Z,29.77
2022-12-17T04:45:02.065Z,34.33
2022-12-17T04:47:47.395Z,27.20
2022-12-17T04:50:32.802Z,32.37
2022-12-17T04:53:18.842Z,33.20
2022-12-17T04:56:04.540Z,28.77
2022-12-17T04:58:50.197Z,25.63
2022-12-17T05:01:35.664Z,34.50
2022-12-17T05:04:20.889Z,26.90
2022-12-17T05:07:06.123Z,28.83
2022-12-17T05:09:51.245Z,27.87
2022-12-17T05:12:37.491Z,29.07
2022-12-17T05:15:25.408Z,29.20
2022-12-17T05:18:11.254Z,31.83
2022-12-17T05:20:56.461Z,31.73
2022-12-17T05:23:41.904Z,34.23
2022-12-17T05:26:37.902Z,27.67
2022-12-17T05:29:23.142Z,28.63
2022-12-17T05:32:09.872Z,26.33
2022-12-17T05:34:55.016Z,28.23
2022-12-17T05:37:42.410Z,26.40
2022-12-17T05:40:28.921Z,26.27
2022-12-17T05:43:15.225Z,22.37
2022-12-17T05:46:01.218Z,23.87
2022-12-17T05:48:48.778Z,21.43
2022-12-17T05:51:38.456Z,17.63
2022-12-17T05:54:24.804Z,12.37
2022-12-17T05:57:10.003Z,20.97
2022-12-17T05:59:55.801Z,26.60
2022-12-17T06:02:41.440Z,23.80
2022-12-17T06:05:28.675Z,24.27
2022-12-17T06:08:20.989Z,18.90
2022-12-17T06:11:07.769Z,21.97
2022-12-17T06:13:53.263Z,20.13
2022-12-17T06:16:39.056Z,20.67
2022-12-17T06:19:24.273Z,22.83
2022-12-17T06:22:10.756Z,24.67
2022-12-17T06:24:55.980Z,23.17
2022-12-17T06:27:41.239Z,26.93
2022-12-17T06:30:27.400Z,24.50
2022-12-17T06:33:21.997Z,19.37
2022-12-17T06:36:07.424Z,22.60
2022-12-17T06:38:53.943Z,25.70
2022-12-17T06:41:40.220Z,22.10
2022-12-17T06:44:27.469Z,19.60
2022-12-17T06:47:12.850Z,21.20
2022-12-17T06:50:01.466Z,20.40
2022-12-17T06:52:47.562Z,23.63
2022-12-17T06:55:34.154Z,25.13
2022-12-17T06:58:19.750Z,22.87
2022-12-17T07:01:05.804Z,20.13
2022-12-17T07:03:51.392Z,18.97
2022-12-17T07:06:36.633Z,21.73
2022-12-17T07:09:22.526Z,23.60
2022-12-17T07:12:09.429Z,21.73
2022-12-17T07:14:55.306Z,24.53
2022-12-17T07:17:42.360Z,23.20
2022-12-17T07:20:29.042Z,24.03
2022-12-17T07:23:14.802Z,21.73
2022-12-17T07:26:08.792Z,21.67
2022-12-17T07:28:55.673Z,26.33
2022-12-17T07:31:41.267Z,20.37
2022-12-17T07:34:26.671Z,22.57
2022-12-17T07:37:14.943Z,21.73
2022-12-17T07:40:04.203Z,24.47
2022-12-17T07:42:51.656Z,22.60
2022-12-17T07:45:38.405Z,20.87
2022-12-17T07:48:24.349Z,21.90
2022-12-17T07:51:10.554Z,25.00
2022-12-17T07:53:56.198Z,28.77
2022-12-17T07:56:42.898Z,24.87
2022-12-17T07:59:28.127Z,28.37
2022-12-17T08:02:15.122Z,27.33
2022-12-17T08:05:00.664Z,20.17
2022-12-17T08:07:45.863Z,21.60
2022-12-17T08:10:27.527Z,23.87
2022-12-17T08:13:14.360Z,24.23
2022-12-17T08:16:00.683Z,20.80
2022-12-17T08:18:47.687Z,24.20
2022-12-17T08:21:33.071Z,25.07
2022-12-17T08:24:18.260Z,21.87
2022-12-17T08:27:03.467Z,23.60
2022-12-17T08:29:48.641Z,25.67
2022-12-17T08:32:34.604Z,21.20
2022-12-17T08:35:21.248Z,24.17
2022-12-17T08:38:06.544Z,21.40
2022-12-17T08:40:54.277Z,26.10
2022-12-17T08:43:36.392Z,30.53
2022-12-17T08:46:22.253Z,19.30
2022-12-17T08:49:15.982Z,24.60
2022-12-17T08:52:02.624Z,21.33
2022-12-17T08:54:47.911Z,21.00
2022-12-17T08:57:33.048Z,24.07
2022-12-17T09:00:18.857Z,19.60
2022-12-17T09:03:04.196Z,27.53
2022-12-17T09:05:58.084Z,22.77
2022-12-17T09:08:44.782Z,26.20
2022-12-17T09:11:30.121Z,29.47
2022-12-17T09:14:15.761Z,23.73
2022-12-17T09:17:01.570Z,22.30
2022-12-17T09:19:46.831Z,20.50
2022-12-17T09:22:31.862Z,25.47
2022-12-17T09:25:18.347Z,23.83
2022-12-17T09:28:03.822Z,24.67
2022-12-17T09:30:49.417Z,25.83
2022-12-17T09:33:35.664Z,23.43
2022-12-17T09:36:22.187Z,27.30
2022-12-17T09:39:07.536Z,27.53
2022-12-17T09:42:03.517Z,24.60
2022-12-17T09:44:57.762Z,23.33
2022-12-17T09:47:55.040Z,27.73
2022-12-17T09:50:41.461Z,20.50
2022-12-17T09:53:37.254Z,17.80
2022-12-17T09:56:23.342Z,21.07
2022-12-17T09:59:09.904Z,25.60
2022-12-17T10:01:55.508Z,20.83
2022-12-17T10:04:51.258Z,24.07
2022-12-17T10:07:41.026Z,25.67
2022-12-17T10:10:38.285Z,30.53
2022-12-17T10:13:30.298Z,19.23
2022-12-17T10:16:17.400Z,27.80
2022-12-17T10:19:03.821Z,21.17
2022-12-17T10:21:50.014Z,24.30
2022-12-17T10:24:35.078Z,23.83
2022-12-17T10:27:27.857Z,27.67
2022-12-17T10:30:12.923Z,20.10
2022-12-17T10:33:00.512Z,34.73
2022-12-17T10:35:54.438Z,24.57
2022-12-17T10:38:41.208Z,22.43
2022-12-17T10:41:39.156Z,28.20
2022-12-17T10:44:39.032Z,24.13
2022-12-17T10:47:30.206Z,24.90
2022-12-17T10:50:18.210Z,27.37
2022-12-17T10:53:05.090Z,24.03
2022-12-17T10:55:52.346Z,25.13
2022-12-17T10:58:39.984Z,29.10
2022-12-17T11:01:28.586Z,23.80
2022-12-17T11:04:15.018Z,28.43
2022-12-17T11:07:04.931Z,28.70
2022-12-17T11:09:57.668Z,34.20
2022-12-17T11:12:50.220Z,24.47
2022-12-17T11:15:43.139Z,29.00
2022-12-17T11:18:35.629Z,26.90
2022-12-17T11:21:26.579Z,25.83
2022-12-17T11:24:22.047Z,25.53
2022-12-17T11:27:12.151Z,24.63
2022-12-17T11:29:57.349Z,17.37
2022-12-17T11:33:04.609Z,21.23
2022-12-17T11:36:00.830Z,26.30
2022-12-17T11:39:07.042Z,19.70
2022-12-17T11:42:09.500Z,19.03
2022-12-17T11:45:08.439Z,14.07
2022-12-17T11:48:03.276Z,23.97
2022-12-17T11:50:56.767Z,19.03
2022-12-17T11:54:05.369Z,20.03
2022-12-17T11:56:58.313Z,22.30
2022-12-17T12:00:04.380Z,21.60
2022-12-17T12:03:10.397Z,27.37
2022-12-17T12:06:05.427Z,17.63
2022-12-17T12:08:55.889Z,21.77
2022-12-17T12:11:51.239Z,16.57
2022-12-17T12:14:48.201Z,17.87
2022-12-17T12:17:48.595Z,19.37
2022-12-17T12:20:46.300Z,23.93
2022-12-17T12:23:41.702Z,18.40
2022-12-17T12:26:32.489Z,18.60
2022-12-17T12:29:26.887Z,26.70
2022-12-17T12:32:19.505Z,20.60
2022-12-17T12:35:05.388Z,14.90
2022-12-17T12:37:53.006Z,19.50
2022-12-17T12:40:59.212Z,22.80
2022-12-17T12:43:48.545Z,18.93
2022-12-17T12:46:38.759Z,15.60
2022-12-17T12:49:35.072Z,17.50
2022-12-17T12:52:19.507Z,21.50
2022-12-17T12:55:13.261Z,23.30
2022-12-17T12:58:02.153Z,18.37
2022-12-17T13:00:53.015Z,23.07
2022-12-17T13:03:46.960Z,16.27
2022-12-17T13:06:41.576Z,18.60
2022-12-17T13:09:22.442Z,18.93
2022-12-17T13:11:52.085Z,16.10
2022-12-17T13:14:23.760Z,18.37
2022-12-17T13:16:55.642Z,12.90
2022-12-17T13:19:36.589Z,16.53
2022-12-17T13:22:33.482Z,15.07
2022-12-17T13:25:17.280Z,14.67
2022-12-17T13:27:45.474Z,14.83
2022-12-17T13:30:22.371Z,14.77
2022-12-17T13:33:02.855Z,15.17
2022-12-17T13:35:38.568Z,10.67
2022-12-17T13:38:17.875Z,16.77
2022-12-17T13:40:50.730Z,17.87
2022-12-17T13:43:21.750Z,17.37
2022-12-17T13:45:51.662Z,16.73
2022-12-17T13:48:25.116Z,16.00
2022-12-17T13:50:58.019Z,18.17
2022-12-17T13:53:28.150Z,22.10
2022-12-17T13:55:58.357Z,18.00
2022-12-17T13:58:28.747Z,15.60
2022-12-17T14:01:15.671Z,17.10
2022-12-17T14:04:05.660Z,19.70
2022-12-17T14:06:37.518Z,18.90
2022-12-17T14:09:08.363Z,15.77
2022-12-17T14:11:56.342Z,17.93
2022-12-17T14:14:30.004Z,20.00
2022-12-17T14:16:57.874Z,15.23
2022-12-17T14:19:26.435Z,22.67
2022-12-17T14:21:54.945Z,14.63
2022-12-17T14:24:29.055Z,16.93
2022-12-17T14:26:58.884Z,21.23
2022-12-17T14:29:28.801Z,18.90
2022-12-17T14:31:58.237Z,18.00
2022-12-17T14:34:26.347Z,16.53
2022-12-17T14:36:57.650Z,19.63
2022-12-17T14:39:28.945Z,22.00
2022-12-17T14:42:16.779Z,18.93
2022-12-17T14:44:55.845Z,16.33
2022-12-17T14:47:25.823Z,20.20
2022-12-17T14:49:57.562Z,19.10
2022-12-17T14:52:35.492Z,17.53
2022-12-17T14:55:27.296Z,21.03
2022-12-17T14:58:09.291Z,29.23
2022-12-17T15:00:39.076Z,19.90
2022-12-17T15:03:07.024Z,17.93
2022-12-17T15:05:36.223Z,18.83
2022-12-17T15:08:05.476Z,14.90
2022-12-17T15:10:34.536Z,19.77
2022-12-17T15:13:02.416Z,20.20
2022-12-17T15:15:30.106Z,22.67
2022-12-17T15:17:57.792Z,17.83
2022-12-17T15:20:25.422Z,24.27
2022-12-17T15:22:53.140Z,21.93
2022-12-17T15:25:21.141Z,19.23
2022-12-17T15:27:50.343Z,20.77
2022-12-17T15:30:19.060Z,22.70
2022-12-17T15:32:47.039Z,20.63
2022-12-17T15:35:15.403Z,23.13
2022-12-17T15:37:43.063Z,18.23
2022-12-17T15:40:11.961Z,23.20
2022-12-17T15:42:59.181Z,24.87
2022-12-17T15:45:33.021Z,22.27
2022-12-17T15:48:00.793Z,29.23
2022-12-17T15:50:30.073Z,29.93
2022-12-17T15:52:57.771Z,27.10
2022-12-17T15:55:25.447Z,27.90
2022-12-17T15:57:53.118Z,29.53
2022-12-17T16:00:20.836Z,29.73
2022-12-17T16:02:50.165Z,45.30
2022-12-17T16:05:19.332Z,42.30
2022-12-17T16:07:47.388Z,24.43
2022-12-17T16:10:15.684Z,31.67
2022-12-17T16:12:43.719Z,27.57
2022-12-17T16:15:13.432Z,27.80
2022-12-17T16:17:41.121Z,26.27
2022-12-17T16:20:11.574Z,29.77
2022-12-17T16:22:39.303Z,28.37
2022-12-17T16:25:07.576Z,26.27
2022-12-17T16:27:35.313Z,19.13
2022-12-17T16:30:04.221Z,28.27
2022-12-17T16:32:36.682Z,22.77
2022-12-17T16:35:05.773Z,28.63
2022-12-17T16:37:34.822Z,22.97
2022-12-17T16:40:02.623Z,24.07
2022-12-17T16:42:30.605Z,24.47
2022-12-17T16:44:58.279Z,27.27
2022-12-17T16:47:26.160Z,29.40
2022-12-17T16:49:53.837Z,24.23
2022-12-17T16:52:21.537Z,30.73
2022-12-17T16:54:50.640Z,20.13
2022-12-17T16:57:18.457Z,19.63
2022-12-17T16:59:46.413Z,22.83
2022-12-17T17:02:16.197Z,24.23
2022-12-17T17:04:44.112Z,32.07
2022-12-17T17:07:11.891Z,26.17
2022-12-17T17:09:40.127Z,23.47
2022-12-17T17:12:11.399Z,24.50
2022-12-17T17:14:40.209Z,26.43
2022-12-17T17:17:08.186Z,24.77
2022-12-17T17:19:36.000Z,22.27
2022-12-17T17:22:03.738Z,31.63
2022-12-17T17:24:31.462Z,30.63
2022-12-17T17:26:59.542Z,27.27
2022-12-17T17:29:28.705Z,35.33
2022-12-17T17:32:13.533Z,28.43
2022-12-17T17:34:42.063Z,36.97
2022-12-17T17:37:10.097Z,27.90
2022-12-17T17:39:38.210Z,26.97
2022-12-17T17:42:06.486Z,22.93
2022-12-17T17:44:35.835Z,28.83
2022-12-17T17:47:03.631Z,28.77
2022-12-17T17:49:31.741Z,23.63
2022-12-17T17:52:09.428Z,23.67
2022-12-17T17:54:38.152Z,26.87
2022-12-17T17:57:05.985Z,22.57
2022-12-17T17:59:35.072Z,23.80
2022-12-17T18:02:03.881Z,26.27
2022-12-17T18:04:32.799Z,25.70
2022-12-17T18:09:48.135Z,19.93
2022-12-17T18:12:33.850Z,23.00
2022-12-17T18:15:14.133Z,23.77
2022-12-17T18:17:43.115Z,31.17
2022-12-17T18:20:11.866Z,27.53
2022-12-17T18:22:39.600Z,26.43
2022-12-17T18:25:07.527Z,21.07
2022-12-17T18:27:35.254Z,29.43
2022-12-17T18:30:05.300Z,31.23
2022-12-17T18:32:32.975Z,32.43
2022-12-17T18:35:00.733Z,34.10
2022-12-17T18:37:28.544Z,22.87
2022-12-17T18:39:56.247Z,28.77
2022-12-17T18:42:41.782Z,25.83
2022-12-17T18:45:11.042Z,29.73
2022-12-17T18:47:38.853Z,28.83
2022-12-17T18:50:07.731Z,30.97
2022-12-17T18:52:35.511Z,33.53
2022-12-17T18:55:03.451Z,25.00
2022-12-17T18:57:31.128Z,29.33
2022-12-17T18:59:58.788Z,27.20
2022-12-17T19:02:28.364Z,31.20
2022-12-17T19:04:56.059Z,27.07
2022-12-17T19:07:23.743Z,28.90
2022-12-17T19:09:51.573Z,31.97
2022-12-17T19:12:19.248Z,29.03
2022-12-17T19:14:47.149Z,27.30
2022-12-17T19:17:14.860Z,29.60
2022-12-17T19:19:43.890Z,25.37
2022-12-17T19:22:11.693Z,28.07
2022-12-17T19:24:39.377Z,25.67
2022-12-17T19:27:07.266Z,30.43
2022-12-17T19:29:35.074Z,28.23
2022-12-17T19:32:03.685Z,34.27
2022-12-17T19:34:32.331Z,26.53
2022-12-17T19:37:01.388Z,28.10
2022-12-17T19:39:29.158Z,31.47
2022-12-17T19:41:56.915Z,31.77
2022-12-17T19:44:25.079Z,26.93
2022-12-17T19:46:52.868Z,26.97
2022-12-17T19:49:20.609Z,28.40
2022-12-17T19:51:48.461Z,33.40
2022-12-17T19:54:17.502Z,25.17
2022-12-17T19:56:46.073Z,27.93
2022-12-17T19:59:14.730Z,31.67
2022-12-17T20:01:44.708Z,27.67
2022-12-17T20:04:14.347Z,25.17
2022-12-17T20:06:42.033Z,24.10
2022-12-17T20:09:10.053Z,27.27
2022-12-17T20:11:39.438Z,26.00
2022-12-17T20:14:11.606Z,25.53
2022-12-17T20:16:41.569Z,25.57
2022-12-17T20:19:12.193Z,28.83
2022-12-17T20:21:39.987Z,31.37
2022-12-17T20:24:08.382Z,26.83
2022-12-17T20:26:36.693Z,29.67
2022-12-17T20:29:09.430Z,27.30
2022-12-17T20:31:37.929Z,30.90
2022-12-17T20:34:09.744Z,29.13
2022-12-17T20:36:39.583Z,23.33
2022-12-17T20:39:07.831Z,29.37
2022-12-17T20:41:36.458Z,26.30
2022-12-17T20:44:07.208Z,27.50
2022-12-17T20:46:37.022Z,22.77
2022-12-17T20:49:06.461Z,27.40
2022-12-17T20:51:35.188Z,25.77
2022-12-17T20:54:05.137Z,31.30
2022-12-17T20:56:34.936Z,30.07
2022-12-17T20:59:04.778Z,30.80
2022-12-17T21:01:37.918Z,24.47
2022-12-17T21:04:07.831Z,25.97
2022-12-17T21:06:38.712Z,26.43
2022-12-17T21:09:07.606Z,22.93
2022-12-17T21:11:39.714Z,23.80
2022-12-17T21:14:10.885Z,25.13
2022-12-17T21:16:41.288Z,22.93
2022-12-17T21:19:10.431Z,18.87
2022-12-17T21:21:40.408Z,27.07
2022-12-17T21:24:10.556Z,23.87
2022-12-17T21:26:40.019Z,25.10
2022-12-17T21:29:09.596Z,23.80
2022-12-17T21:31:41.356Z,17.57
2022-12-17T21:34:12.817Z,17.17
2022-12-17T21:36:41.762Z,20.00
2022-12-17T21:39:13.701Z,24.27
2022-12-17T21:42:07.559Z,23.03
2022-12-17T21:44:37.614Z,19.40
2022-12-17T21:47:07.966Z,23.73
2022-12-17T21:49:45.097Z,26.27
2022-12-17T21:52:13.137Z,25.07
2022-12-17T21:54:41.784Z,28.23
2022-12-17T21:57:09.739Z,23.57
2022-12-17T21:59:37.741Z,28.13
2022-12-17T22:02:07.818Z,26.27
2022-12-17T22:04:35.788Z,20.10
2022-12-17T22:07:10.322Z,24.53
2022-12-17T22:09:54.980Z,23.07
2022-12-17T22:12:50.273Z,23.53
2022-12-17T22:15:18.972Z,25.43
2022-12-17T22:17:49.502Z,19.60
2022-12-17T22:20:18.299Z,27.87
2022-12-17T22:22:47.365Z,19.10
2022-12-17T22:25:17.499Z,26.67
2022-12-17T22:27:50.283Z,22.23
2022-12-17T22:30:43.195Z,23.37
2022-12-17T22:33:24.062Z,22.93
2022-12-17T22:37:40.178Z,24.60
2022-12-17T22:42:29.001Z,23.53
2022-12-17T22:44:29.477Z,25.50
2022-12-17T22:45:04.051Z,20.03
2022-12-17T22:47:36.547Z,23.43
2022-12-17T22:50:08.297Z,21.73
2022-12-17T22:52:37.416Z,21.90
2022-12-17T22:55:07.493Z,22.60
2022-12-17T22:57:38.256Z,24.00
2022-12-17T23:00:14.396Z,22.70
2022-12-17T23:02:42.671Z,25.83
2022-12-17T23:05:12.064Z,24.93
2022-12-17T23:07:40.490Z,21.93
2022-12-17T23:10:08.989Z,23.73
2022-12-17T23:12:52.590Z,24.63
2022-12-17T23:15:23.280Z,23.87
2022-12-17T23:17:51.468Z,27.37
2022-12-17T23:20:21.433Z,24.97
2022-12-17T23:22:49.258Z,23.53
2022-12-17T23:25:17.329Z,22.63
2022-12-17T23:27:46.980Z,18.87
2022-12-17T23:30:16.936Z,21.10
2022-12-17T23:32:45.433Z,22.63
2022-12-17T23:35:14.241Z,20.20
2022-12-17T23:37:43.819Z,21.63
2022-12-17T23:40:13.388Z,16.30
2022-12-17T23:42:41.089Z,19.53
2022-12-17T23:45:11.317Z,22.00
2022-12-17T23:47:39.690Z,22.33
2022-12-17T23:50:09.636Z,26.03
2022-12-17T23:52:38.945Z,23.07
2022-12-17T23:55:09.021Z,20.60
2022-12-17T23:57:36.676Z,18.50
